sensor_id;sensor_type;location;lat;lon;timestamp;P1;durP1;ratioP1;P2;durP2;ratioP2
72354;SDS011;60314;55.040;73.076;2022-08-01T00:02:15;14.35;;;10.65;;
72354;SDS011;60314;55.040;73.076;2022-08-01T00:04:41;12.85;;;10.60;;
72354;SDS011;60314;55.040;73.076;2022-08-01T00:07:18;11.52;;;10.00;;
72354;SDS011;60314;55.040;73.076;2022-08-01T00:09:44;16.13;;;9.85;;
72354;SDS011;60314;55.040;73.076;2022-08-01T00:12:11;13.32;;;9.90;;
72354;SDS011;60314;55.040;73.076;2022-08-01T00:14:37;13.75;;;10.45;;
72354;SDS011;60314;55.040;73.076;2022-08-01T00:17:14;12.38;;;9.70;;
72354;SDS011;60314;55.040;73.076;2022-08-01T00:19:46;13.40;;;10.18;;
72354;SDS011;60314;55.040;73.076;2022-08-01T00:22:13;13.85;;;9.88;;
72354;SDS011;60314;55.040;73.076;2022-08-01T00:24:39;11.77;;;9.63;;
72354;SDS011;60314;55.040;73.076;2022-08-01T00:27:06;12.73;;;9.95;;
72354;SDS011;60314;55.040;73.076;2022-08-01T00:29:32;13.45;;;10.02;;
72354;SDS011;60314;55.040;73.076;2022-08-01T00:31:59;11.35;;;9.13;;
72354;SDS011;60314;55.040;73.076;2022-08-01T00:34:30;13.35;;;9.80;;
72354;SDS011;60314;55.040;73.076;2022-08-01T00:36:57;13.50;;;9.75;;
72354;SDS011;60314;55.040;73.076;2022-08-01T00:39:23;11.30;;;8.50;;
72354;SDS011;60314;55.040;73.076;2022-08-01T00:41:50;14.98;;;9.98;;
72354;SDS011;60314;55.040;73.076;2022-08-01T00:44:16;13.43;;;9.27;;
72354;SDS011;60314;55.040;73.076;2022-08-01T00:47:01;12.82;;;9.27;;
72354;SDS011;60314;55.040;73.076;2022-08-01T00:49:28;11.50;;;9.93;;
72354;SDS011;60314;55.040;73.076;2022-08-01T00:52:00;10.93;;;9.38;;
72354;SDS011;60314;55.040;73.076;2022-08-01T00:54:30;12.52;;;10.02;;
72354;SDS011;60314;55.040;73.076;2022-08-01T00:56:57;15.18;;;10.40;;
72354;SDS011;60314;55.040;73.076;2022-08-01T00:59:24;13.52;;;9.93;;
72354;SDS011;60314;55.040;73.076;2022-08-01T01:01:52;12.48;;;9.90;;
72354;SDS011;60314;55.040;73.076;2022-08-01T01:04:19;12.68;;;10.55;;
72354;SDS011;60314;55.040;73.076;2022-08-01T01:06:53;12.90;;;10.20;;
72354;SDS011;60314;55.040;73.076;2022-08-01T01:09:34;14.27;;;9.93;;
72354;SDS011;60314;55.040;73.076;2022-08-01T01:15:02;12.55;;;10.10;;
72354;SDS011;60314;55.040;73.076;2022-08-01T01:17:44;12.32;;;9.82;;
72354;SDS011;60314;55.040;73.076;2022-08-01T01:20:14;12.68;;;10.05;;
72354;SDS011;60314;55.040;73.076;2022-08-01T01:31:19;14.00;;;10.77;;
72354;SDS011;60314;55.040;73.076;2022-08-01T01:33:47;14.50;;;10.30;;
72354;SDS011;60314;55.040;73.076;2022-08-01T01:36:15;12.75;;;10.30;;
72354;SDS011;60314;55.040;73.076;2022-08-01T01:38:45;12.55;;;9.90;;
72354;SDS011;60314;55.040;73.076;2022-08-01T01:41:14;14.98;;;10.93;;
72354;SDS011;60314;55.040;73.076;2022-08-01T01:43:43;12.68;;;10.70;;
72354;SDS011;60314;55.040;73.076;2022-08-01T01:46:11;11.82;;;9.80;;
72354;SDS011;60314;55.040;73.076;2022-08-01T01:48:43;14.05;;;10.82;;
72354;SDS011;60314;55.040;73.076;2022-08-01T01:51:10;12.85;;;9.95;;
72354;SDS011;60314;55.040;73.076;2022-08-01T01:53:39;16.13;;;11.77;;
72354;SDS011;60314;55.040;73.076;2022-08-01T01:56:07;17.63;;;10.88;;
72354;SDS011;60314;55.040;73.076;2022-08-01T01:58:36;20.52;;;10.90;;
72354;SDS011;60314;55.040;73.076;2022-08-01T02:01:05;12.73;;;11.15;;
72354;SDS011;60314;55.040;73.076;2022-08-01T02:03:32;14.30;;;11.07;;
72354;SDS011;60314;55.040;73.076;2022-08-01T02:06:02;14.30;;;11.20;;
72354;SDS011;60314;55.040;73.076;2022-08-01T02:08:30;13.00;;;10.85;;
72354;SDS011;60314;55.040;73.076;2022-08-01T02:10:59;14.57;;;11.02;;
72354;SDS011;60314;55.040;73.076;2022-08-01T02:16:31;14.95;;;10.77;;
72354;SDS011;60314;55.040;73.076;2022-08-01T02:19:10;18.77;;;10.82;;
72354;SDS011;60314;55.040;73.076;2022-08-01T02:21:39;16.83;;;11.60;;
72354;SDS011;60314;55.040;73.076;2022-08-01T02:24:13;20.10;;;10.90;;
72354;SDS011;60314;55.040;73.076;2022-08-01T02:26:46;16.40;;;11.60;;
72354;SDS011;60314;55.040;73.076;2022-08-01T02:29:17;18.17;;;12.20;;
72354;SDS011;60314;55.040;73.076;2022-08-01T02:31:48;14.63;;;11.65;;
72354;SDS011;60314;55.040;73.076;2022-08-01T02:34:20;17.85;;;12.18;;
72354;SDS011;60314;55.040;73.076;2022-08-01T02:36:48;18.38;;;11.73;;
72354;SDS011;60314;55.040;73.076;2022-08-01T02:39:17;20.98;;;12.13;;
72354;SDS011;60314;55.040;73.076;2022-08-01T02:41:48;19.27;;;12.55;;
72354;SDS011;60314;55.040;73.076;2022-08-01T02:44:23;14.93;;;10.90;;
72354;SDS011;60314;55.040;73.076;2022-08-01T02:49:22;14.60;;;11.35;;
72354;SDS011;60314;55.040;73.076;2022-08-01T02:51:52;21.52;;;13.68;;
72354;SDS011;60314;55.040;73.076;2022-08-01T02:54:27;27.08;;;13.05;;
72354;SDS011;60314;55.040;73.076;2022-08-01T02:56:57;21.15;;;12.90;;
72354;SDS011;60314;55.040;73.076;2022-08-01T02:59:24;19.85;;;12.98;;
72354;SDS011;60314;55.040;73.076;2022-08-01T03:01:53;41.63;;;15.32;;
72354;SDS011;60314;55.040;73.076;2022-08-01T03:04:22;35.38;;;15.93;;
72354;SDS011;60314;55.040;73.076;2022-08-01T03:06:51;42.58;;;18.25;;
72354;SDS011;60314;55.040;73.076;2022-08-01T03:09:19;47.13;;;19.60;;
72354;SDS011;60314;55.040;73.076;2022-08-01T03:11:46;23.45;;;12.75;;
72354;SDS011;60314;55.040;73.076;2022-08-01T03:14:15;19.42;;;13.18;;
72354;SDS011;60314;55.040;73.076;2022-08-01T03:16:44;17.75;;;12.38;;
72354;SDS011;60314;55.040;73.076;2022-08-01T03:19:12;13.75;;;11.45;;
72354;SDS011;60314;55.040;73.076;2022-08-01T03:21:40;15.40;;;12.75;;
72354;SDS011;60314;55.040;73.076;2022-08-01T03:24:09;16.50;;;12.27;;
72354;SDS011;60314;55.040;73.076;2022-08-01T03:26:36;14.02;;;12.45;;
72354;SDS011;60314;55.040;73.076;2022-08-01T03:29:12;23.83;;;13.63;;
72354;SDS011;60314;55.040;73.076;2022-08-01T03:31:43;27.67;;;13.77;;
72354;SDS011;60314;55.040;73.076;2022-08-01T03:34:12;30.85;;;17.02;;
72354;SDS011;60314;55.040;73.076;2022-08-01T03:36:59;22.15;;;15.60;;
72354;SDS011;60314;55.040;73.076;2022-08-01T03:40:00;24.65;;;15.35;;
72354;SDS011;60314;55.040;73.076;2022-08-01T03:42:52;19.98;;;14.55;;
72354;SDS011;60314;55.040;73.076;2022-08-01T03:45:40;20.55;;;14.02;;
72354;SDS011;60314;55.040;73.076;2022-08-01T03:48:10;22.73;;;15.63;;
72354;SDS011;60314;55.040;73.076;2022-08-01T03:50:41;18.60;;;13.48;;
72354;SDS011;60314;55.040;73.076;2022-08-01T03:53:20;15.55;;;13.57;;
72354;SDS011;60314;55.040;73.076;2022-08-01T03:55:50;14.75;;;13.25;;
72354;SDS011;60314;55.040;73.076;2022-08-01T03:58:19;16.08;;;14.38;;
72354;SDS011;60314;55.040;73.076;2022-08-01T04:00:56;51.40;;;22.08;;
72354;SDS011;60314;55.040;73.076;2022-08-01T04:03:24;51.53;;;23.02;;
72354;SDS011;60314;55.040;73.076;2022-08-01T04:05:50;50.25;;;21.80;;
72354;SDS011;60314;55.040;73.076;2022-08-01T04:08:17;38.15;;;18.88;;
72354;SDS011;60314;55.040;73.076;2022-08-01T04:10:43;144.80;;;35.78;;
72354;SDS011;60314;55.040;73.076;2022-08-01T04:13:10;57.83;;;26.63;;
72354;SDS011;60314;55.040;73.076;2022-08-01T04:15:36;23.00;;;17.88;;
72354;SDS011;60314;55.040;73.076;2022-08-01T04:18:03;32.65;;;19.65;;
72354;SDS011;60314;55.040;73.076;2022-08-01T04:20:29;45.67;;;23.25;;
72354;SDS011;60314;55.040;73.076;2022-08-01T04:22:56;56.60;;;26.85;;
72354;SDS011;60314;55.040;73.076;2022-08-01T04:25:26;36.30;;;22.27;;
72354;SDS011;60314;55.040;73.076;2022-08-01T04:27:59;63.58;;;33.20;;
72354;SDS011;60314;55.040;73.076;2022-08-01T04:30:41;39.03;;;23.08;;
72354;SDS011;60314;55.040;73.076;2022-08-01T04:33:10;118.38;;;37.35;;
72354;SDS011;60314;55.040;73.076;2022-08-01T04:35:45;25.42;;;21.63;;
72354;SDS011;60314;55.040;73.076;2022-08-01T04:38:13;19.40;;;17.42;;
72354;SDS011;60314;55.040;73.076;2022-08-01T04:40:44;48.33;;;29.52;;
72354;SDS011;60314;55.040;73.076;2022-08-01T04:43:14;22.65;;;20.17;;
72354;SDS011;60314;55.040;73.076;2022-08-01T04:45:41;22.67;;;18.85;;
72354;SDS011;60314;55.040;73.076;2022-08-01T04:48:09;20.42;;;18.33;;
72354;SDS011;60314;55.040;73.076;2022-08-01T04:50:36;21.10;;;18.95;;
72354;SDS011;60314;55.040;73.076;2022-08-01T04:53:17;22.02;;;19.67;;
72354;SDS011;60314;55.040;73.076;2022-08-01T04:55:48;24.20;;;19.98;;
72354;SDS011;60314;55.040;73.076;2022-08-01T04:58:15;22.38;;;19.83;;
72354;SDS011;60314;55.040;73.076;2022-08-01T05:00:42;22.42;;;20.13;;
72354;SDS011;60314;55.040;73.076;2022-08-01T05:03:08;22.75;;;20.20;;
72354;SDS011;60314;55.040;73.076;2022-08-01T05:05:39;22.17;;;18.95;;
72354;SDS011;60314;55.040;73.076;2022-08-01T05:08:16;23.50;;;19.85;;
72354;SDS011;60314;55.040;73.076;2022-08-01T05:10:42;21.90;;;19.40;;
72354;SDS011;60314;55.040;73.076;2022-08-01T05:13:09;23.83;;;21.33;;
72354;SDS011;60314;55.040;73.076;2022-08-01T05:15:36;23.00;;;20.33;;
72354;SDS011;60314;55.040;73.076;2022-08-01T05:18:03;23.98;;;20.52;;
72354;SDS011;60314;55.040;73.076;2022-08-01T05:23:03;22.35;;;18.52;;
72354;SDS011;60314;55.040;73.076;2022-08-01T05:25:30;24.73;;;21.10;;
72354;SDS011;60314;55.040;73.076;2022-08-01T05:27:57;22.48;;;18.75;;
72354;SDS011;60314;55.040;73.076;2022-08-01T05:30:23;22.48;;;19.05;;
72354;SDS011;60314;55.040;73.076;2022-08-01T05:32:50;21.73;;;19.35;;
72354;SDS011;60314;55.040;73.076;2022-08-01T05:35:16;20.35;;;17.75;;
72354;SDS011;60314;55.040;73.076;2022-08-01T05:37:43;22.02;;;19.00;;
72354;SDS011;60314;55.040;73.076;2022-08-01T05:40:09;21.98;;;18.83;;
72354;SDS011;60314;55.040;73.076;2022-08-01T05:42:36;20.15;;;18.05;;
72354;SDS011;60314;55.040;73.076;2022-08-01T05:45:03;21.40;;;19.13;;
72354;SDS011;60314;55.040;73.076;2022-08-01T05:47:30;19.45;;;17.35;;
72354;SDS011;60314;55.040;73.076;2022-08-01T05:49:56;20.73;;;17.92;;
72354;SDS011;60314;55.040;73.076;2022-08-01T05:52:22;19.88;;;17.65;;
72354;SDS011;60314;55.040;73.076;2022-08-01T05:54:49;19.38;;;17.33;;
72354;SDS011;60314;55.040;73.076;2022-08-01T05:57:15;20.23;;;17.40;;
72354;SDS011;60314;55.040;73.076;2022-08-01T05:59:42;19.65;;;17.33;;
72354;SDS011;60314;55.040;73.076;2022-08-01T06:02:08;21.73;;;17.55;;
72354;SDS011;60314;55.040;73.076;2022-08-01T06:04:35;20.02;;;17.15;;
72354;SDS011;60314;55.040;73.076;2022-08-01T06:07:06;19.05;;;16.55;;
72354;SDS011;60314;55.040;73.076;2022-08-01T06:09:32;23.90;;;17.30;;
72354;SDS011;60314;55.040;73.076;2022-08-01T06:11:59;21.40;;;16.95;;
72354;SDS011;60314;55.040;73.076;2022-08-01T06:14:25;19.75;;;16.45;;
72354;SDS011;60314;55.040;73.076;2022-08-01T06:16:52;17.45;;;15.38;;
72354;SDS011;60314;55.040;73.076;2022-08-01T06:19:18;19.25;;;16.25;;
72354;SDS011;60314;55.040;73.076;2022-08-01T06:21:45;20.20;;;17.75;;
72354;SDS011;60314;55.040;73.076;2022-08-01T06:24:11;17.05;;;14.75;;
72354;SDS011;60314;55.040;73.076;2022-08-01T06:26:38;22.23;;;16.90;;
72354;SDS011;60314;55.040;73.076;2022-08-01T06:29:04;17.73;;;15.23;;
72354;SDS011;60314;55.040;73.076;2022-08-01T06:31:31;18.13;;;15.02;;
72354;SDS011;60314;55.040;73.076;2022-08-01T06:33:57;19.52;;;15.48;;
72354;SDS011;60314;55.040;73.076;2022-08-01T06:36:24;17.27;;;15.27;;
72354;SDS011;60314;55.040;73.076;2022-08-01T06:38:52;17.05;;;15.00;;
72354;SDS011;60314;55.040;73.076;2022-08-01T06:41:24;18.17;;;15.20;;
72354;SDS011;60314;55.040;73.076;2022-08-01T06:43:50;25.77;;;16.15;;
72354;SDS011;60314;55.040;73.076;2022-08-01T06:46:16;18.00;;;16.00;;
72354;SDS011;60314;55.040;73.076;2022-08-01T06:48:43;22.77;;;16.17;;
72354;SDS011;60314;55.040;73.076;2022-08-01T06:51:09;18.58;;;15.68;;
72354;SDS011;60314;55.040;73.076;2022-08-01T06:53:39;16.55;;;14.63;;
72354;SDS011;60314;55.040;73.076;2022-08-01T06:56:06;17.52;;;14.52;;
72354;SDS011;60314;55.040;73.076;2022-08-01T06:58:40;18.45;;;15.43;;
72354;SDS011;60314;55.040;73.076;2022-08-01T07:01:06;19.55;;;14.15;;
72354;SDS011;60314;55.040;73.076;2022-08-01T07:03:35;19.33;;;14.45;;
72354;SDS011;60314;55.040;73.076;2022-08-01T07:06:12;17.65;;;14.57;;
72354;SDS011;60314;55.040;73.076;2022-08-01T07:08:40;18.58;;;14.48;;
72354;SDS011;60314;55.040;73.076;2022-08-01T07:11:07;16.95;;;14.73;;
72354;SDS011;60314;55.040;73.076;2022-08-01T07:13:33;17.13;;;14.95;;
72354;SDS011;60314;55.040;73.076;2022-08-01T07:16:00;16.65;;;14.70;;
72354;SDS011;60314;55.040;73.076;2022-08-01T07:18:26;16.60;;;14.77;;
72354;SDS011;60314;55.040;73.076;2022-08-01T07:20:53;19.23;;;15.18;;
72354;SDS011;60314;55.040;73.076;2022-08-01T07:23:20;22.73;;;16.00;;
72354;SDS011;60314;55.040;73.076;2022-08-01T07:25:52;18.20;;;14.23;;
72354;SDS011;60314;55.040;73.076;2022-08-01T07:28:19;16.58;;;13.82;;
72354;SDS011;60314;55.040;73.076;2022-08-01T07:30:45;18.92;;;14.10;;
72354;SDS011;60314;55.040;73.076;2022-08-01T07:33:12;17.55;;;13.73;;
72354;SDS011;60314;55.040;73.076;2022-08-01T07:35:38;18.08;;;14.15;;
72354;SDS011;60314;55.040;73.076;2022-08-01T07:38:08;20.25;;;14.65;;
72354;SDS011;60314;55.040;73.076;2022-08-01T07:40:44;18.30;;;14.13;;
72354;SDS011;60314;55.040;73.076;2022-08-01T07:43:10;19.88;;;13.43;;
72354;SDS011;60314;55.040;73.076;2022-08-01T07:45:37;15.73;;;12.23;;
72354;SDS011;60314;55.040;73.076;2022-08-01T07:48:04;23.02;;;13.57;;
72354;SDS011;60314;55.040;73.076;2022-08-01T07:50:31;15.20;;;11.77;;
72354;SDS011;60314;55.040;73.076;2022-08-01T07:52:58;16.02;;;12.95;;
72354;SDS011;60314;55.040;73.076;2022-08-01T07:55:30;17.20;;;12.05;;
72354;SDS011;60314;55.040;73.076;2022-08-01T07:58:04;20.25;;;12.10;;
72354;SDS011;60314;55.040;73.076;2022-08-01T08:00:31;15.57;;;10.88;;
72354;SDS011;60314;55.040;73.076;2022-08-01T08:02:58;13.30;;;10.30;;
72354;SDS011;60314;55.040;73.076;2022-08-01T08:05:25;13.73;;;9.70;;
72354;SDS011;60314;55.040;73.076;2022-08-01T08:07:53;14.18;;;9.73;;
72354;SDS011;60314;55.040;73.076;2022-08-01T08:10:19;17.48;;;10.90;;
72354;SDS011;60314;55.040;73.076;2022-08-01T08:12:46;18.27;;;10.80;;
72354;SDS011;60314;55.040;73.076;2022-08-01T08:15:14;15.82;;;10.40;;
72354;SDS011;60314;55.040;73.076;2022-08-01T08:17:40;15.57;;;10.27;;
72354;SDS011;60314;55.040;73.076;2022-08-01T08:20:07;16.05;;;10.55;;
72354;SDS011;60314;55.040;73.076;2022-08-01T08:22:34;18.00;;;10.80;;
72354;SDS011;60314;55.040;73.076;2022-08-01T08:25:01;16.00;;;10.60;;
72354;SDS011;60314;55.040;73.076;2022-08-01T08:27:28;17.80;;;9.80;;
72354;SDS011;60314;55.040;73.076;2022-08-01T08:29:54;15.63;;;8.70;;
72354;SDS011;60314;55.040;73.076;2022-08-01T08:32:21;12.52;;;9.15;;
72354;SDS011;60314;55.040;73.076;2022-08-01T08:34:48;12.75;;;7.53;;
72354;SDS011;60314;55.040;73.076;2022-08-01T08:37:19;12.15;;;7.03;;
72354;SDS011;60314;55.040;73.076;2022-08-01T08:39:50;13.32;;;7.80;;
72354;SDS011;60314;55.040;73.076;2022-08-01T08:42:16;11.20;;;6.97;;
72354;SDS011;60314;55.040;73.076;2022-08-01T08:44:44;8.70;;;4.38;;
72354;SDS011;60314;55.040;73.076;2022-08-01T08:47:12;8.32;;;3.40;;
72354;SDS011;60314;55.040;73.076;2022-08-01T08:49:39;11.05;;;4.30;;
72354;SDS011;60314;55.040;73.076;2022-08-01T08:52:14;14.35;;;4.32;;
72354;SDS011;60314;55.040;73.076;2022-08-01T08:54:43;8.93;;;3.50;;
72354;SDS011;60314;55.040;73.076;2022-08-01T08:57:13;12.82;;;3.60;;
72354;SDS011;60314;55.040;73.076;2022-08-01T08:59:43;6.72;;;3.75;;
72354;SDS011;60314;55.040;73.076;2022-08-01T09:02:10;6.75;;;3.30;;
72354;SDS011;60314;55.040;73.076;2022-08-01T09:04:37;6.45;;;2.85;;
72354;SDS011;60314;55.040;73.076;2022-08-01T09:07:06;6.50;;;3.28;;
72354;SDS011;60314;55.040;73.076;2022-08-01T09:09:34;6.40;;;2.85;;
72354;SDS011;60314;55.040;73.076;2022-08-01T09:12:01;5.50;;;2.70;;
72354;SDS011;60314;55.040;73.076;2022-08-01T09:14:32;4.45;;;2.53;;
72354;SDS011;60314;55.040;73.076;2022-08-01T09:19:35;4.78;;;2.72;;
72354;SDS011;60314;55.040;73.076;2022-08-01T09:22:08;5.38;;;2.97;;
72354;SDS011;60314;55.040;73.076;2022-08-01T09:24:37;5.53;;;2.67;;
72354;SDS011;60314;55.040;73.076;2022-08-01T09:27:15;7.75;;;2.83;;
72354;SDS011;60314;55.040;73.076;2022-08-01T09:29:44;4.47;;;2.85;;
72354;SDS011;60314;55.040;73.076;2022-08-01T09:32:10;5.78;;;3.13;;
72354;SDS011;60314;55.040;73.076;2022-08-01T09:34:37;4.70;;;3.00;;
72354;SDS011;60314;55.040;73.076;2022-08-01T09:37:03;7.43;;;2.70;;
72354;SDS011;60314;55.040;73.076;2022-08-01T09:39:32;5.22;;;2.70;;
72354;SDS011;60314;55.040;73.076;2022-08-01T09:42:22;7.75;;;3.08;;
72354;SDS011;60314;55.040;73.076;2022-08-01T09:44:55;5.63;;;2.45;;
72354;SDS011;60314;55.040;73.076;2022-08-01T09:47:22;5.75;;;2.28;;
72354;SDS011;60314;55.040;73.076;2022-08-01T09:50:13;3.57;;;2.50;;
72354;SDS011;60314;55.040;73.076;2022-08-01T09:52:41;4.88;;;2.50;;
72354;SDS011;60314;55.040;73.076;2022-08-01T09:55:07;3.63;;;2.08;;
72354;SDS011;60314;55.040;73.076;2022-08-01T09:57:35;4.03;;;2.30;;
72354;SDS011;60314;55.040;73.076;2022-08-01T10:00:02;5.43;;;2.10;;
72354;SDS011;60314;55.040;73.076;2022-08-01T10:02:38;6.75;;;2.40;;
72354;SDS011;60314;55.040;73.076;2022-08-01T10:05:09;5.38;;;2.47;;
72354;SDS011;60314;55.040;73.076;2022-08-01T10:10:21;6.88;;;2.70;;
72354;SDS011;60314;55.040;73.076;2022-08-01T10:12:48;3.72;;;2.30;;
72354;SDS011;60314;55.040;73.076;2022-08-01T10:15:17;10.85;;;2.72;;
72354;SDS011;60314;55.040;73.076;2022-08-01T10:17:47;5.32;;;2.20;;
72354;SDS011;60314;55.040;73.076;2022-08-01T10:20:19;6.60;;;2.40;;
72354;SDS011;60314;55.040;73.076;2022-08-01T10:22:48;4.82;;;2.60;;
72354;SDS011;60314;55.040;73.076;2022-08-01T10:25:15;3.63;;;2.10;;
72354;SDS011;60314;55.040;73.076;2022-08-01T10:27:45;7.05;;;2.30;;
72354;SDS011;60314;55.040;73.076;2022-08-01T10:30:15;4.10;;;2.22;;
72354;SDS011;60314;55.040;73.076;2022-08-01T10:32:42;4.03;;;2.40;;
72354;SDS011;60314;55.040;73.076;2022-08-01T10:35:11;7.35;;;2.70;;
72354;SDS011;60314;55.040;73.076;2022-08-01T10:37:43;9.32;;;2.72;;
72354;SDS011;60314;55.040;73.076;2022-08-01T10:40:14;6.20;;;2.65;;
72354;SDS011;60314;55.040;73.076;2022-08-01T10:42:42;5.70;;;2.20;;
72354;SDS011;60314;55.040;73.076;2022-08-01T10:45:13;5.57;;;2.40;;
72354;SDS011;60314;55.040;73.076;2022-08-01T10:50:40;4.38;;;2.00;;
72354;SDS011;60314;55.040;73.076;2022-08-01T10:53:16;6.07;;;1.90;;
72354;SDS011;60314;55.040;73.076;2022-08-01T11:03:41;6.47;;;1.77;;
72354;SDS011;60314;55.040;73.076;2022-08-01T11:06:15;5.97;;;2.00;;
72354;SDS011;60314;55.040;73.076;2022-08-01T11:08:49;4.70;;;2.15;;
72354;SDS011;60314;55.040;73.076;2022-08-01T11:11:18;7.00;;;1.80;;
72354;SDS011;60314;55.040;73.076;2022-08-01T11:14:23;4.90;;;1.88;;
72354;SDS011;60314;55.040;73.076;2022-08-01T11:16:42;3.88;;;1.70;;
72354;SDS011;60314;55.040;73.076;2022-08-01T11:19:10;2.85;;;1.42;;
72354;SDS011;60314;55.040;73.076;2022-08-01T11:27:17;3.60;;;1.60;;
72354;SDS011;60314;55.040;73.076;2022-08-01T11:35:24;5.97;;;1.40;;
72354;SDS011;60314;55.040;73.076;2022-08-01T11:37:53;3.20;;;1.38;;
72354;SDS011;60314;55.040;73.076;2022-08-01T11:40:28;6.15;;;1.40;;
72354;SDS011;60314;55.040;73.076;2022-08-01T11:45:46;3.47;;;1.00;;
72354;SDS011;60314;55.040;73.076;2022-08-01T11:48:19;7.00;;;1.42;;
72354;SDS011;60314;55.040;73.076;2022-08-01T11:50:55;4.35;;;1.20;;
72354;SDS011;60314;55.040;73.076;2022-08-01T11:53:28;7.78;;;1.00;;
72354;SDS011;60314;55.040;73.076;2022-08-01T11:56:05;3.08;;;0.93;;
72354;SDS011;60314;55.040;73.076;2022-08-01T11:58:33;5.50;;;1.25;;
72354;SDS011;60314;55.040;73.076;2022-08-01T12:01:00;5.45;;;1.17;;
72354;SDS011;60314;55.040;73.076;2022-08-01T12:03:27;3.53;;;1.00;;
72354;SDS011;60314;55.040;73.076;2022-08-01T12:05:58;2.83;;;1.20;;
72354;SDS011;60314;55.040;73.076;2022-08-01T12:08:28;2.95;;;1.13;;
72354;SDS011;60314;55.040;73.076;2022-08-01T12:10:56;4.43;;;1.25;;
72354;SDS011;60314;55.040;73.076;2022-08-01T12:13:22;3.15;;;0.95;;
72354;SDS011;60314;55.040;73.076;2022-08-01T12:15:49;3.90;;;1.08;;
72354;SDS011;60314;55.040;73.076;2022-08-01T12:18:18;3.53;;;1.17;;
72354;SDS011;60314;55.040;73.076;2022-08-01T12:20:45;2.45;;;0.95;;
72354;SDS011;60314;55.040;73.076;2022-08-01T12:23:14;3.97;;;1.33;;
72354;SDS011;60314;55.040;73.076;2022-08-01T12:25:41;2.40;;;1.00;;
72354;SDS011;60314;55.040;73.076;2022-08-01T12:28:19;3.90;;;1.10;;
72354;SDS011;60314;55.040;73.076;2022-08-01T12:30:46;2.65;;;1.13;;
72354;SDS011;60314;55.040;73.076;2022-08-01T12:33:16;2.28;;;1.10;;
72354;SDS011;60314;55.040;73.076;2022-08-01T12:35:44;4.10;;;1.02;;
72354;SDS011;60314;55.040;73.076;2022-08-01T12:38:15;2.72;;;1.00;;
72354;SDS011;60314;55.040;73.076;2022-08-01T12:40:44;3.00;;;1.10;;
72354;SDS011;60314;55.040;73.076;2022-08-01T12:43:16;4.15;;;1.00;;
72354;SDS011;60314;55.040;73.076;2022-08-01T12:45:44;5.72;;;1.10;;
72354;SDS011;60314;55.040;73.076;2022-08-01T12:48:13;4.18;;;1.20;;
72354;SDS011;60314;55.040;73.076;2022-08-01T12:50:42;5.72;;;1.05;;
72354;SDS011;60314;55.040;73.076;2022-08-01T12:53:10;2.35;;;0.90;;
72354;SDS011;60314;55.040;73.076;2022-08-01T12:55:44;5.95;;;1.25;;
72354;SDS011;60314;55.040;73.076;2022-08-01T13:00:39;2.90;;;1.10;;
72354;SDS011;60314;55.040;73.076;2022-08-01T13:03:23;3.05;;;1.10;;
72354;SDS011;60314;55.040;73.076;2022-08-01T13:08:24;2.58;;;1.20;;
72354;SDS011;60314;55.040;73.076;2022-08-01T13:11:00;6.40;;;0.95;;
72354;SDS011;60314;55.040;73.076;2022-08-01T13:13:37;3.58;;;1.00;;
72354;SDS011;60314;55.040;73.076;2022-08-01T13:16:06;2.50;;;1.10;;
72354;SDS011;60314;55.040;73.076;2022-08-01T13:18:34;2.88;;;1.10;;
72354;SDS011;60314;55.040;73.076;2022-08-01T13:21:24;2.75;;;1.08;;
72354;SDS011;60314;55.040;73.076;2022-08-01T13:29:11;2.92;;;1.10;;
72354;SDS011;60314;55.040;73.076;2022-08-01T13:31:40;3.67;;;1.00;;
72354;SDS011;60314;55.040;73.076;2022-08-01T13:36:38;2.50;;;1.00;;
72354;SDS011;60314;55.040;73.076;2022-08-01T13:39:10;2.75;;;1.10;;
72354;SDS011;60314;55.040;73.076;2022-08-01T13:41:55;3.95;;;1.08;;
72354;SDS011;60314;55.040;73.076;2022-08-01T13:44:21;3.92;;;1.30;;
72354;SDS011;60314;55.040;73.076;2022-08-01T13:46:48;2.60;;;1.10;;
72354;SDS011;60314;55.040;73.076;2022-08-01T13:49:15;2.67;;;1.17;;
72354;SDS011;60314;55.040;73.076;2022-08-01T13:51:42;3.22;;;1.20;;
72354;SDS011;60314;55.040;73.076;2022-08-01T13:54:09;3.58;;;1.10;;
72354;SDS011;60314;55.040;73.076;2022-08-01T13:56:35;2.88;;;1.15;;
72354;SDS011;60314;55.040;73.076;2022-08-01T13:59:02;5.45;;;1.10;;
72354;SDS011;60314;55.040;73.076;2022-08-01T14:01:28;4.45;;;1.77;;
72354;SDS011;60314;55.040;73.076;2022-08-01T14:03:55;5.60;;;1.40;;
72354;SDS011;60314;55.040;73.076;2022-08-01T14:06:21;4.90;;;1.20;;
72354;SDS011;60314;55.040;73.076;2022-08-01T14:08:48;3.35;;;1.10;;
72354;SDS011;60314;55.040;73.076;2022-08-01T14:11:16;5.10;;;1.58;;
72354;SDS011;60314;55.040;73.076;2022-08-01T14:13:47;3.28;;;1.20;;
72354;SDS011;60314;55.040;73.076;2022-08-01T14:18:59;10.77;;;1.45;;
72354;SDS011;60314;55.040;73.076;2022-08-01T14:21:25;5.53;;;1.40;;
72354;SDS011;60314;55.040;73.076;2022-08-01T14:23:52;5.13;;;1.10;;
72354;SDS011;60314;55.040;73.076;2022-08-01T14:26:18;3.40;;;1.25;;
72354;SDS011;60314;55.040;73.076;2022-08-01T14:28:45;5.43;;;1.45;;
72354;SDS011;60314;55.040;73.076;2022-08-01T14:31:11;2.80;;;1.33;;
72354;SDS011;60314;55.040;73.076;2022-08-01T14:33:47;6.32;;;1.40;;
72354;SDS011;60314;55.040;73.076;2022-08-01T14:36:14;5.07;;;1.30;;
72354;SDS011;60314;55.040;73.076;2022-08-01T14:38:40;4.95;;;1.20;;
72354;SDS011;60314;55.040;73.076;2022-08-01T14:41:07;3.58;;;1.17;;
72354;SDS011;60314;55.040;73.076;2022-08-01T14:43:33;4.05;;;1.20;;
72354;SDS011;60314;55.040;73.076;2022-08-01T14:46:00;5.57;;;1.30;;
72354;SDS011;60314;55.040;73.076;2022-08-01T14:48:29;5.53;;;1.30;;
72354;SDS011;60314;55.040;73.076;2022-08-01T14:50:56;5.00;;;1.10;;
72354;SDS011;60314;55.040;73.076;2022-08-01T14:53:23;4.03;;;0.98;;
72354;SDS011;60314;55.040;73.076;2022-08-01T14:55:53;4.70;;;1.20;;
72354;SDS011;60314;55.040;73.076;2022-08-01T14:58:20;3.78;;;0.98;;
72354;SDS011;60314;55.040;73.076;2022-08-01T15:00:47;4.55;;;1.27;;
72354;SDS011;60314;55.040;73.076;2022-08-01T15:03:13;2.40;;;1.00;;
72354;SDS011;60314;55.040;73.076;2022-08-01T15:05:40;7.18;;;1.17;;
72354;SDS011;60314;55.040;73.076;2022-08-01T15:08:25;4.15;;;1.10;;
72354;SDS011;60314;55.040;73.076;2022-08-01T15:10:52;5.28;;;1.17;;
72354;SDS011;60314;55.040;73.076;2022-08-01T15:13:18;4.70;;;1.00;;
72354;SDS011;60314;55.040;73.076;2022-08-01T15:15:45;3.58;;;1.17;;
72354;SDS011;60314;55.040;73.076;2022-08-01T15:18:11;4.97;;;1.13;;
72354;SDS011;60314;55.040;73.076;2022-08-01T15:20:38;5.80;;;1.08;;
72354;SDS011;60314;55.040;73.076;2022-08-01T15:23:04;2.92;;;1.00;;
72354;SDS011;60314;55.040;73.076;2022-08-01T15:25:31;5.95;;;1.17;;
72354;SDS011;60314;55.040;73.076;2022-08-01T15:27:58;2.80;;;1.00;;
72354;SDS011;60314;55.040;73.076;2022-08-01T15:30:25;4.15;;;1.30;;
72354;SDS011;60314;55.040;73.076;2022-08-01T15:32:56;3.93;;;1.10;;
72354;SDS011;60314;55.040;73.076;2022-08-01T15:35:22;2.90;;;1.08;;
72354;SDS011;60314;55.040;73.076;2022-08-01T15:37:49;3.60;;;1.20;;
72354;SDS011;60314;55.040;73.076;2022-08-01T15:40:15;3.47;;;0.90;;